CHICAGO O'HARE INTL

KORD (ORD)
Chicago, Illinois
Towered

Vatsim Metar:
KORD 111051Z 24008G16KT 10SM BKN120 M11/M15 A3030 RMK AO2 SLP274 T11061150

No ATC Online

Traffic

Inbound:
Ident
Type
Name
ETA
Phase
NCA188
H/B748/L
Diego Cuadra Rivera SCLC
11:41 Z
Descent
AA1017
H/A319/Z
Hebert Augusto Africano Linares SVVL
Boarding

Outbound:
Ident
Type
Name
Destination
Phase

IAPs